sensor_id;sensor_type;location;lat;lon;timestamp;P1;durP1;ratioP1;P2;durP2;ratioP2
76115;SDS011;64847;45.778;12.802;2023-06-22T00:02:07;15.07;;;13.80;;
76115;SDS011;64847;45.778;12.802;2023-06-22T00:04:32;15.93;;;14.52;;
76115;SDS011;64847;45.778;12.802;2023-06-22T00:06:57;14.98;;;13.73;;
76115;SDS011;64847;45.778;12.802;2023-06-22T00:09:23;14.52;;;13.30;;
76115;SDS011;64847;45.778;12.802;2023-06-22T00:11:48;16.20;;;14.88;;
76115;SDS011;64847;45.778;12.802;2023-06-22T00:14:14;14.43;;;13.23;;
76115;SDS011;64847;45.778;12.802;2023-06-22T00:16:39;14.93;;;13.73;;
76115;SDS011;64847;45.778;12.802;2023-06-22T00:19:04;14.95;;;13.75;;
76115;SDS011;64847;45.778;12.802;2023-06-22T00:21:30;15.50;;;14.10;;
76115;SDS011;64847;45.778;12.802;2023-06-22T00:23:55;17.05;;;15.55;;
76115;SDS011;64847;45.778;12.802;2023-06-22T00:26:22;14.82;;;13.52;;
76115;SDS011;64847;45.778;12.802;2023-06-22T00:28:47;16.25;;;15.02;;
76115;SDS011;64847;45.778;12.802;2023-06-22T00:31:13;16.00;;;14.70;;
76115;SDS011;64847;45.778;12.802;2023-06-22T00:33:38;17.45;;;15.85;;
76115;SDS011;64847;45.778;12.802;2023-06-22T00:36:04;16.30;;;15.00;;
76115;SDS011;64847;45.778;12.802;2023-06-22T00:38:30;17.13;;;15.50;;
76115;SDS011;64847;45.778;12.802;2023-06-22T00:40:55;18.55;;;17.05;;
76115;SDS011;64847;45.778;12.802;2023-06-22T00:43:20;16.73;;;15.13;;
76115;SDS011;64847;45.778;12.802;2023-06-22T00:45:46;16.42;;;15.02;;
76115;SDS011;64847;45.778;12.802;2023-06-22T00:48:12;16.27;;;14.98;;
76115;SDS011;64847;45.778;12.802;2023-06-22T00:50:39;16.73;;;15.43;;
76115;SDS011;64847;45.778;12.802;2023-06-22T00:53:05;18.17;;;16.40;;
76115;SDS011;64847;45.778;12.802;2023-06-22T00:55:42;16.70;;;15.07;;
76115;SDS011;64847;45.778;12.802;2023-06-22T00:58:09;17.17;;;15.57;;
76115;SDS011;64847;45.778;12.802;2023-06-22T01:00:35;16.80;;;15.45;;
76115;SDS011;64847;45.778;12.802;2023-06-22T01:03:01;18.95;;;17.27;;
76115;SDS011;64847;45.778;12.802;2023-06-22T01:05:28;18.95;;;17.20;;
76115;SDS011;64847;45.778;12.802;2023-06-22T01:10:50;18.23;;;16.73;;
76115;SDS011;64847;45.778;12.802;2023-06-22T01:13:35;18.05;;;16.58;;
76115;SDS011;64847;45.778;12.802;2023-06-22T01:16:10;20.00;;;18.27;;
76115;SDS011;64847;45.778;12.802;2023-06-22T01:18:46;20.05;;;18.25;;
76115;SDS011;64847;45.778;12.802;2023-06-22T01:21:14;18.38;;;16.77;;
76115;SDS011;64847;45.778;12.802;2023-06-22T01:26:19;19.60;;;17.95;;
76115;SDS011;64847;45.778;12.802;2023-06-22T01:28:50;19.08;;;17.48;;
76115;SDS011;64847;45.778;12.802;2023-06-22T01:31:20;19.15;;;17.45;;
76115;SDS011;64847;45.778;12.802;2023-06-22T01:33:52;19.92;;;18.13;;
76115;SDS011;64847;45.778;12.802;2023-06-22T01:36:20;19.48;;;17.77;;
76115;SDS011;64847;45.778;12.802;2023-06-22T01:38:48;18.67;;;17.17;;
76115;SDS011;64847;45.778;12.802;2023-06-22T01:41:13;17.35;;;15.95;;
76115;SDS011;64847;45.778;12.802;2023-06-22T01:43:40;19.92;;;18.08;;
76115;SDS011;64847;45.778;12.802;2023-06-22T01:46:05;19.02;;;17.42;;
76115;SDS011;64847;45.778;12.802;2023-06-22T01:48:32;19.38;;;17.77;;
76115;SDS011;64847;45.778;12.802;2023-06-22T01:50:57;18.55;;;17.05;;
76115;SDS011;64847;45.778;12.802;2023-06-22T01:53:23;18.52;;;16.92;;
76115;SDS011;64847;45.778;12.802;2023-06-22T01:55:49;19.63;;;17.70;;
76115;SDS011;64847;45.778;12.802;2023-06-22T01:58:14;18.38;;;16.88;;
76115;SDS011;64847;45.778;12.802;2023-06-22T02:00:41;19.98;;;18.38;;
76115;SDS011;64847;45.778;12.802;2023-06-22T02:03:14;18.73;;;17.13;;
76115;SDS011;64847;45.778;12.802;2023-06-22T02:06:04;18.83;;;17.13;;
76115;SDS011;64847;45.778;12.802;2023-06-22T02:08:35;18.50;;;16.88;;
76115;SDS011;64847;45.778;12.802;2023-06-22T02:11:06;20.05;;;18.35;;
76115;SDS011;64847;45.778;12.802;2023-06-22T02:13:31;17.75;;;16.17;;
76115;SDS011;64847;45.778;12.802;2023-06-22T02:15:57;19.98;;;18.23;;
76115;SDS011;64847;45.778;12.802;2023-06-22T02:18:22;19.90;;;17.92;;
76115;SDS011;64847;45.778;12.802;2023-06-22T02:20:48;21.13;;;19.33;;
76115;SDS011;64847;45.778;12.802;2023-06-22T02:23:13;20.02;;;18.33;;
76115;SDS011;64847;45.778;12.802;2023-06-22T02:25:38;19.77;;;18.20;;
76115;SDS011;64847;45.778;12.802;2023-06-22T02:28:04;20.48;;;18.70;;
76115;SDS011;64847;45.778;12.802;2023-06-22T02:30:30;20.33;;;18.42;;
76115;SDS011;64847;45.778;12.802;2023-06-22T02:32:55;23.70;;;21.80;;
76115;SDS011;64847;45.778;12.802;2023-06-22T02:35:27;21.77;;;19.88;;
76115;SDS011;64847;45.778;12.802;2023-06-22T02:37:56;21.33;;;19.48;;
76115;SDS011;64847;45.778;12.802;2023-06-22T02:40:22;23.02;;;21.10;;
76115;SDS011;64847;45.778;12.802;2023-06-22T02:42:47;22.15;;;20.27;;
76115;SDS011;64847;45.778;12.802;2023-06-22T02:45:13;22.85;;;20.98;;
76115;SDS011;64847;45.778;12.802;2023-06-22T02:47:38;22.98;;;21.10;;
76115;SDS011;64847;45.778;12.802;2023-06-22T02:50:04;21.67;;;19.85;;
76115;SDS011;64847;45.778;12.802;2023-06-22T02:52:30;20.63;;;19.02;;
76115;SDS011;64847;45.778;12.802;2023-06-22T02:54:55;22.77;;;20.90;;
76115;SDS011;64847;45.778;12.802;2023-06-22T02:57:21;23.58;;;21.40;;
76115;SDS011;64847;45.778;12.802;2023-06-22T02:59:46;22.75;;;20.95;;
76115;SDS011;64847;45.778;12.802;2023-06-22T03:02:12;23.48;;;21.58;;
76115;SDS011;64847;45.778;12.802;2023-06-22T03:04:37;24.50;;;22.42;;
76115;SDS011;64847;45.778;12.802;2023-06-22T03:07:02;22.98;;;20.85;;
76115;SDS011;64847;45.778;12.802;2023-06-22T03:09:28;23.13;;;21.23;;
76115;SDS011;64847;45.778;12.802;2023-06-22T03:11:54;24.08;;;22.08;;
76115;SDS011;64847;45.778;12.802;2023-06-22T03:14:19;23.90;;;21.85;;
76115;SDS011;64847;45.778;12.802;2023-06-22T03:16:45;26.38;;;24.05;;
76115;SDS011;64847;45.778;12.802;2023-06-22T03:19:11;23.95;;;21.88;;
76115;SDS011;64847;45.778;12.802;2023-06-22T03:21:36;20.90;;;19.13;;
76115;SDS011;64847;45.778;12.802;2023-06-22T03:24:03;24.58;;;22.58;;
76115;SDS011;64847;45.778;12.802;2023-06-22T03:26:29;23.85;;;21.83;;
76115;SDS011;64847;45.778;12.802;2023-06-22T03:28:55;23.90;;;21.98;;
76115;SDS011;64847;45.778;12.802;2023-06-22T03:31:20;24.33;;;22.33;;
76115;SDS011;64847;45.778;12.802;2023-06-22T03:33:47;25.23;;;22.83;;
76115;SDS011;64847;45.778;12.802;2023-06-22T03:36:13;22.70;;;20.80;;
76115;SDS011;64847;45.778;12.802;2023-06-22T03:38:41;24.80;;;22.80;;
76115;SDS011;64847;45.778;12.802;2023-06-22T03:41:06;26.27;;;24.02;;
76115;SDS011;64847;45.778;12.802;2023-06-22T03:43:32;21.33;;;19.52;;
76115;SDS011;64847;45.778;12.802;2023-06-22T03:45:57;25.75;;;23.58;;
76115;SDS011;64847;45.778;12.802;2023-06-22T03:48:23;25.70;;;23.55;;
76115;SDS011;64847;45.778;12.802;2023-06-22T03:50:48;24.10;;;22.10;;
76115;SDS011;64847;45.778;12.802;2023-06-22T03:53:14;22.83;;;20.90;;
76115;SDS011;64847;45.778;12.802;2023-06-22T03:55:47;27.27;;;24.83;;
76115;SDS011;64847;45.778;12.802;2023-06-22T03:58:13;23.48;;;21.55;;
76115;SDS011;64847;45.778;12.802;2023-06-22T04:00:39;22.50;;;20.65;;
76115;SDS011;64847;45.778;12.802;2023-06-22T04:03:04;24.23;;;22.17;;
76115;SDS011;64847;45.778;12.802;2023-06-22T04:05:30;22.50;;;20.70;;
76115;SDS011;64847;45.778;12.802;2023-06-22T04:07:55;23.67;;;21.67;;
76115;SDS011;64847;45.778;12.802;2023-06-22T04:10:21;22.30;;;20.48;;
76115;SDS011;64847;45.778;12.802;2023-06-22T04:12:46;22.50;;;20.70;;
76115;SDS011;64847;45.778;12.802;2023-06-22T04:15:12;24.05;;;21.88;;
76115;SDS011;64847;45.778;12.802;2023-06-22T04:17:37;22.42;;;20.63;;
76115;SDS011;64847;45.778;12.802;2023-06-22T04:20:02;23.67;;;21.58;;
76115;SDS011;64847;45.778;12.802;2023-06-22T04:22:29;23.48;;;21.48;;
76115;SDS011;64847;45.778;12.802;2023-06-22T04:24:54;23.33;;;21.48;;
76115;SDS011;64847;45.778;12.802;2023-06-22T04:27:20;22.20;;;20.40;;
76115;SDS011;64847;45.778;12.802;2023-06-22T04:29:48;22.58;;;20.67;;
76115;SDS011;64847;45.778;12.802;2023-06-22T04:32:14;23.02;;;21.23;;
76115;SDS011;64847;45.778;12.802;2023-06-22T04:34:42;22.92;;;21.00;;
76115;SDS011;64847;45.778;12.802;2023-06-22T04:37:07;20.35;;;18.70;;
76115;SDS011;64847;45.778;12.802;2023-06-22T04:39:33;20.65;;;18.88;;
76115;SDS011;64847;45.778;12.802;2023-06-22T04:41:59;19.38;;;17.88;;
76115;SDS011;64847;45.778;12.802;2023-06-22T04:44:25;20.52;;;18.83;;
76115;SDS011;64847;45.778;12.802;2023-06-22T04:46:58;20.52;;;18.88;;
76115;SDS011;64847;45.778;12.802;2023-06-22T04:49:29;18.45;;;16.85;;
76115;SDS011;64847;45.778;12.802;2023-06-22T04:52:02;18.38;;;16.73;;
76115;SDS011;64847;45.778;12.802;2023-06-22T04:54:28;16.65;;;15.35;;
76115;SDS011;64847;45.778;12.802;2023-06-22T04:56:54;17.15;;;15.85;;
76115;SDS011;64847;45.778;12.802;2023-06-22T04:59:26;14.82;;;13.70;;
76115;SDS011;64847;45.778;12.802;2023-06-22T05:04:21;17.08;;;15.57;;
76115;SDS011;64847;45.778;12.802;2023-06-22T05:06:52;16.83;;;15.52;;
76115;SDS011;64847;45.778;12.802;2023-06-22T05:09:17;17.10;;;15.80;;
76115;SDS011;64847;45.778;12.802;2023-06-22T05:11:44;15.05;;;13.75;;
76115;SDS011;64847;45.778;12.802;2023-06-22T05:14:09;16.00;;;14.63;;
76115;SDS011;64847;45.778;12.802;2023-06-22T05:16:35;14.02;;;13.02;;
76115;SDS011;64847;45.778;12.802;2023-06-22T05:19:01;15.60;;;14.20;;
76115;SDS011;64847;45.778;12.802;2023-06-22T05:21:28;14.80;;;13.63;;
76115;SDS011;64847;45.778;12.802;2023-06-22T05:23:54;16.70;;;15.27;;
76115;SDS011;64847;45.778;12.802;2023-06-22T05:26:21;15.48;;;13.98;;
76115;SDS011;64847;45.778;12.802;2023-06-22T05:28:47;14.13;;;12.98;;
76115;SDS011;64847;45.778;12.802;2023-06-22T05:31:16;13.45;;;12.50;;
76115;SDS011;64847;45.778;12.802;2023-06-22T05:33:42;14.70;;;13.50;;
76115;SDS011;64847;45.778;12.802;2023-06-22T05:36:08;14.32;;;12.82;;
76115;SDS011;64847;45.778;12.802;2023-06-22T05:38:34;14.55;;;13.40;;
76115;SDS011;64847;45.778;12.802;2023-06-22T05:40:59;12.52;;;11.60;;
76115;SDS011;64847;45.778;12.802;2023-06-22T05:43:25;12.82;;;11.93;;
76115;SDS011;64847;45.778;12.802;2023-06-22T05:45:50;13.68;;;12.50;;
76115;SDS011;64847;45.778;12.802;2023-06-22T05:48:15;12.93;;;11.85;;
76115;SDS011;64847;45.778;12.802;2023-06-22T05:50:41;12.45;;;11.45;;
76115;SDS011;64847;45.778;12.802;2023-06-22T05:53:07;11.23;;;10.40;;
76115;SDS011;64847;45.778;12.802;2023-06-22T05:55:33;11.82;;;10.88;;
76115;SDS011;64847;45.778;12.802;2023-06-22T05:57:58;12.63;;;11.40;;
76115;SDS011;64847;45.778;12.802;2023-06-22T06:00:24;11.73;;;10.82;;
76115;SDS011;64847;45.778;12.802;2023-06-22T06:02:49;11.35;;;10.52;;
76115;SDS011;64847;45.778;12.802;2023-06-22T06:05:15;11.73;;;10.93;;
76115;SDS011;64847;45.778;12.802;2023-06-22T06:07:41;11.50;;;10.55;;
76115;SDS011;64847;45.778;12.802;2023-06-22T06:10:07;11.10;;;10.07;;
76115;SDS011;64847;45.778;12.802;2023-06-22T06:12:33;12.00;;;10.95;;
76115;SDS011;64847;45.778;12.802;2023-06-22T06:14:58;12.27;;;11.18;;
76115;SDS011;64847;45.778;12.802;2023-06-22T06:17:24;10.32;;;9.63;;
76115;SDS011;64847;45.778;12.802;2023-06-22T06:19:49;11.63;;;10.68;;
76115;SDS011;64847;45.778;12.802;2023-06-22T06:22:15;10.32;;;9.52;;
76115;SDS011;64847;45.778;12.802;2023-06-22T06:24:40;10.30;;;9.43;;
76115;SDS011;64847;45.778;12.802;2023-06-22T06:27:06;10.45;;;9.65;;
76115;SDS011;64847;45.778;12.802;2023-06-22T06:29:31;9.68;;;8.98;;
76115;SDS011;64847;45.778;12.802;2023-06-22T06:31:57;9.80;;;9.10;;
76115;SDS011;64847;45.778;12.802;2023-06-22T06:34:22;8.88;;;8.27;;
76115;SDS011;64847;45.778;12.802;2023-06-22T06:36:48;9.02;;;8.43;;
76115;SDS011;64847;45.778;12.802;2023-06-22T06:39:13;8.57;;;7.97;;
76115;SDS011;64847;45.778;12.802;2023-06-22T06:41:39;8.40;;;7.75;;
76115;SDS011;64847;45.778;12.802;2023-06-22T06:44:04;9.75;;;8.95;;
76115;SDS011;64847;45.778;12.802;2023-06-22T06:46:30;8.65;;;7.95;;
76115;SDS011;64847;45.778;12.802;2023-06-22T06:48:55;8.52;;;7.93;;
76115;SDS011;64847;45.778;12.802;2023-06-22T06:51:21;7.88;;;7.30;;
76115;SDS011;64847;45.778;12.802;2023-06-22T06:53:46;7.72;;;7.13;;
76115;SDS011;64847;45.778;12.802;2023-06-22T06:56:11;8.63;;;8.02;;
76115;SDS011;64847;45.778;12.802;2023-06-22T06:58:37;7.60;;;7.13;;
76115;SDS011;64847;45.778;12.802;2023-06-22T07:01:05;7.35;;;6.90;;
76115;SDS011;64847;45.778;12.802;2023-06-22T07:03:31;7.50;;;6.90;;
76115;SDS011;64847;45.778;12.802;2023-06-22T07:05:58;8.07;;;7.55;;
76115;SDS011;64847;45.778;12.802;2023-06-22T07:08:23;8.15;;;7.57;;
76115;SDS011;64847;45.778;12.802;2023-06-22T07:10:49;7.47;;;6.90;;
76115;SDS011;64847;45.778;12.802;2023-06-22T07:13:14;7.65;;;6.97;;
76115;SDS011;64847;45.778;12.802;2023-06-22T07:15:40;7.60;;;7.00;;
76115;SDS011;64847;45.778;12.802;2023-06-22T07:18:05;6.75;;;6.28;;
76115;SDS011;64847;45.778;12.802;2023-06-22T07:20:31;7.13;;;6.63;;
76115;SDS011;64847;45.778;12.802;2023-06-22T07:22:56;7.30;;;6.80;;
76115;SDS011;64847;45.778;12.802;2023-06-22T07:25:23;7.65;;;7.15;;
76115;SDS011;64847;45.778;12.802;2023-06-22T07:27:59;8.10;;;7.45;;
76115;SDS011;64847;45.778;12.802;2023-06-22T07:30:26;6.63;;;6.22;;
76115;SDS011;64847;45.778;12.802;2023-06-22T07:32:52;6.75;;;6.35;;
76115;SDS011;64847;45.778;12.802;2023-06-22T07:35:17;7.25;;;6.72;;
76115;SDS011;64847;45.778;12.802;2023-06-22T07:37:42;6.72;;;6.18;;
76115;SDS011;64847;45.778;12.802;2023-06-22T07:40:08;6.68;;;6.18;;
76115;SDS011;64847;45.778;12.802;2023-06-22T07:42:34;6.53;;;6.03;;
76115;SDS011;64847;45.778;12.802;2023-06-22T07:45:00;6.55;;;6.05;;
76115;SDS011;64847;45.778;12.802;2023-06-22T07:47:28;7.05;;;6.47;;
76115;SDS011;64847;45.778;12.802;2023-06-22T07:49:54;6.57;;;6.07;;
76115;SDS011;64847;45.778;12.802;2023-06-22T07:52:22;6.45;;;5.95;;
76115;SDS011;64847;45.778;12.802;2023-06-22T07:54:48;6.72;;;6.32;;
76115;SDS011;64847;45.778;12.802;2023-06-22T07:57:14;7.07;;;6.40;;
76115;SDS011;64847;45.778;12.802;2023-06-22T07:59:39;6.00;;;5.63;;
76115;SDS011;64847;45.778;12.802;2023-06-22T08:02:05;7.60;;;7.10;;
76115;SDS011;64847;45.778;12.802;2023-06-22T08:04:30;6.53;;;6.13;;
76115;SDS011;64847;45.778;12.802;2023-06-22T08:06:59;6.50;;;6.10;;
76115;SDS011;64847;45.778;12.802;2023-06-22T08:09:25;6.35;;;5.95;;
76115;SDS011;64847;45.778;12.802;2023-06-22T08:11:52;6.10;;;5.70;;
76115;SDS011;64847;45.778;12.802;2023-06-22T08:14:19;6.55;;;6.15;;
76115;SDS011;64847;45.778;12.802;2023-06-22T08:16:44;5.97;;;5.57;;
76115;SDS011;64847;45.778;12.802;2023-06-22T08:19:10;6.75;;;6.15;;
76115;SDS011;64847;45.778;12.802;2023-06-22T08:21:35;6.15;;;5.65;;
76115;SDS011;64847;45.778;12.802;2023-06-22T08:24:00;5.90;;;5.38;;
76115;SDS011;64847;45.778;12.802;2023-06-22T08:26:27;6.00;;;5.50;;
76115;SDS011;64847;45.778;12.802;2023-06-22T08:28:52;6.10;;;5.60;;
76115;SDS011;64847;45.778;12.802;2023-06-22T08:31:18;6.00;;;5.50;;
76115;SDS011;64847;45.778;12.802;2023-06-22T08:33:43;5.68;;;5.28;;
76115;SDS011;64847;45.778;12.802;2023-06-22T08:36:10;6.00;;;5.60;;
76115;SDS011;64847;45.778;12.802;2023-06-22T08:38:38;5.85;;;5.43;;
76115;SDS011;64847;45.778;12.802;2023-06-22T08:41:03;5.60;;;5.20;;
76115;SDS011;64847;45.778;12.802;2023-06-22T08:43:29;6.05;;;5.55;;
76115;SDS011;64847;45.778;12.802;2023-06-22T08:45:54;5.63;;;5.13;;
76115;SDS011;64847;45.778;12.802;2023-06-22T08:48:19;5.43;;;5.03;;
76115;SDS011;64847;45.778;12.802;2023-06-22T08:50:46;6.00;;;5.60;;
76115;SDS011;64847;45.778;12.802;2023-06-22T08:53:12;5.95;;;5.60;;
76115;SDS011;64847;45.778;12.802;2023-06-22T08:55:37;6.55;;;6.05;;
76115;SDS011;64847;45.778;12.802;2023-06-22T08:58:03;5.72;;;5.28;;
76115;SDS011;64847;45.778;12.802;2023-06-22T09:00:28;5.65;;;5.25;;
76115;SDS011;64847;45.778;12.802;2023-06-22T09:02:57;5.80;;;5.40;;
76115;SDS011;64847;45.778;12.802;2023-06-22T09:05:24;6.40;;;5.90;;
76115;SDS011;64847;45.778;12.802;2023-06-22T09:07:51;6.03;;;5.53;;
76115;SDS011;64847;45.778;12.802;2023-06-22T09:10:16;6.32;;;5.90;;
76115;SDS011;64847;45.778;12.802;2023-06-22T09:12:42;6.18;;;5.68;;
76115;SDS011;64847;45.778;12.802;2023-06-22T09:15:08;5.63;;;5.32;;
76115;SDS011;64847;45.778;12.802;2023-06-22T09:17:34;6.35;;;5.85;;
76115;SDS011;64847;45.778;12.802;2023-06-22T09:20:00;6.15;;;5.78;;
76115;SDS011;64847;45.778;12.802;2023-06-22T09:22:26;6.10;;;5.63;;
76115;SDS011;64847;45.778;12.802;2023-06-22T09:24:54;6.18;;;5.78;;
76115;SDS011;64847;45.778;12.802;2023-06-22T09:27:20;6.03;;;5.53;;
76115;SDS011;64847;45.778;12.802;2023-06-22T09:29:46;5.78;;;5.30;;
76115;SDS011;64847;45.778;12.802;2023-06-22T09:32:11;5.38;;;5.03;;
76115;SDS011;64847;45.778;12.802;2023-06-22T09:34:37;5.57;;;5.20;;
76115;SDS011;64847;45.778;12.802;2023-06-22T09:37:02;5.80;;;5.30;;
76115;SDS011;64847;45.778;12.802;2023-06-22T09:39:28;5.57;;;5.18;;
76115;SDS011;64847;45.778;12.802;2023-06-22T09:41:53;5.95;;;5.55;;
76115;SDS011;64847;45.778;12.802;2023-06-22T09:44:19;5.90;;;5.50;;
76115;SDS011;64847;45.778;12.802;2023-06-22T09:46:44;6.30;;;5.70;;
76115;SDS011;64847;45.778;12.802;2023-06-22T09:49:10;6.45;;;5.97;;
76115;SDS011;64847;45.778;12.802;2023-06-22T09:51:35;5.95;;;5.55;;
76115;SDS011;64847;45.778;12.802;2023-06-22T09:54:01;5.32;;;5.00;;
76115;SDS011;64847;45.778;12.802;2023-06-22T09:56:27;6.03;;;5.53;;
76115;SDS011;64847;45.778;12.802;2023-06-22T09:58:54;5.70;;;5.18;;
76115;SDS011;64847;45.778;12.802;2023-06-22T10:01:19;5.85;;;5.35;;
76115;SDS011;64847;45.778;12.802;2023-06-22T10:03:46;5.43;;;5.00;;
76115;SDS011;64847;45.778;12.802;2023-06-22T10:06:11;5.32;;;4.82;;
76115;SDS011;64847;45.778;12.802;2023-06-22T10:08:37;4.90;;;4.60;;
76115;SDS011;64847;45.778;12.802;2023-06-22T10:11:05;5.68;;;5.30;;
76115;SDS011;64847;45.778;12.802;2023-06-22T10:13:30;5.18;;;4.80;;
76115;SDS011;64847;45.778;12.802;2023-06-22T10:15:56;5.13;;;4.80;;
76115;SDS011;64847;45.778;12.802;2023-06-22T10:18:21;5.07;;;4.78;;
76115;SDS011;64847;45.778;12.802;2023-06-22T10:20:47;5.45;;;5.05;;
76115;SDS011;64847;45.778;12.802;2023-06-22T10:23:15;5.25;;;4.85;;
76115;SDS011;64847;45.778;12.802;2023-06-22T10:25:40;5.78;;;5.38;;
76115;SDS011;64847;45.778;12.802;2023-06-22T10:28:06;5.55;;;5.05;;
76115;SDS011;64847;45.778;12.802;2023-06-22T10:30:32;6.03;;;5.63;;
76115;SDS011;64847;45.778;12.802;2023-06-22T10:32:57;5.95;;;5.45;;
76115;SDS011;64847;45.778;12.802;2023-06-22T10:35:23;5.40;;;5.10;;
76115;SDS011;64847;45.778;12.802;2023-06-22T10:37:48;5.85;;;5.45;;
76115;SDS011;64847;45.778;12.802;2023-06-22T10:40:14;6.50;;;6.00;;
76115;SDS011;64847;45.778;12.802;2023-06-22T10:42:40;6.65;;;6.15;;
76115;SDS011;64847;45.778;12.802;2023-06-22T10:45:06;6.03;;;5.60;;
76115;SDS011;64847;45.778;12.802;2023-06-22T10:47:33;6.18;;;5.75;;
76115;SDS011;64847;45.778;12.802;2023-06-22T10:50:02;6.60;;;6.20;;
76115;SDS011;64847;45.778;12.802;2023-06-22T10:52:28;6.40;;;6.00;;
76115;SDS011;64847;45.778;12.802;2023-06-22T10:54:53;7.38;;;6.88;;
76115;SDS011;64847;45.778;12.802;2023-06-22T10:57:18;7.03;;;6.53;;
76115;SDS011;64847;45.778;12.802;2023-06-22T10:59:44;6.50;;;6.10;;
76115;SDS011;64847;45.778;12.802;2023-06-22T11:02:09;6.53;;;6.03;;
76115;SDS011;64847;45.778;12.802;2023-06-22T11:04:35;6.72;;;6.13;;
76115;SDS011;64847;45.778;12.802;2023-06-22T11:07:00;6.13;;;5.72;;
76115;SDS011;64847;45.778;12.802;2023-06-22T11:09:26;6.90;;;6.03;;
76115;SDS011;64847;45.778;12.802;2023-06-22T11:11:52;6.88;;;6.32;;
76115;SDS011;64847;45.778;12.802;2023-06-22T11:14:20;6.13;;;5.72;;
76115;SDS011;64847;45.778;12.802;2023-06-22T11:16:46;6.88;;;6.28;;
76115;SDS011;64847;45.778;12.802;2023-06-22T11:19:12;5.57;;;5.18;;
76115;SDS011;64847;45.778;12.802;2023-06-22T11:21:38;6.07;;;5.57;;
76115;SDS011;64847;45.778;12.802;2023-06-22T11:24:03;6.57;;;5.97;;
76115;SDS011;64847;45.778;12.802;2023-06-22T11:26:29;6.05;;;5.65;;
76115;SDS011;64847;45.778;12.802;2023-06-22T11:28:55;6.13;;;5.63;;
76115;SDS011;64847;45.778;12.802;2023-06-22T11:31:20;5.75;;;5.35;;
76115;SDS011;64847;45.778;12.802;2023-06-22T11:33:46;5.50;;;5.10;;
76115;SDS011;64847;45.778;12.802;2023-06-22T11:36:12;5.80;;;5.40;;
76115;SDS011;64847;45.778;12.802;2023-06-22T11:38:38;5.65;;;5.32;;
76115;SDS011;64847;45.778;12.802;2023-06-22T11:41:07;5.50;;;5.10;;
76115;SDS011;64847;45.778;12.802;2023-06-22T11:43:33;5.80;;;5.40;;
76115;SDS011;64847;45.778;12.802;2023-06-22T11:45:59;6.07;;;5.57;;
76115;SDS011;64847;45.778;12.802;2023-06-22T11:48:26;5.55;;;5.15;;
76115;SDS011;64847;45.778;12.802;2023-06-22T11:50:51;5.63;;;5.22;;
76115;SDS011;64847;45.778;12.802;2023-06-22T11:53:17;5.30;;;4.90;;
76115;SDS011;64847;45.778;12.802;2023-06-22T11:55:45;5.97;;;5.47;;
76115;SDS011;64847;45.778;12.802;2023-06-22T11:58:12;5.80;;;5.40;;
76115;SDS011;64847;45.778;12.802;2023-06-22T12:00:37;5.63;;;5.32;;
76115;SDS011;64847;45.778;12.802;2023-06-22T12:03:03;5.65;;;5.25;;
76115;SDS011;64847;45.778;12.802;2023-06-22T12:05:28;5.32;;;5.03;;
76115;SDS011;64847;45.778;12.802;2023-06-22T12:07:54;5.90;;;5.40;;
76115;SDS011;64847;45.778;12.802;2023-06-22T12:10:20;5.65;;;5.25;;
76115;SDS011;64847;45.778;12.802;2023-06-22T12:12:46;5.20;;;4.90;;
76115;SDS011;64847;45.778;12.802;2023-06-22T12:15:11;5.32;;;5.00;;
76115;SDS011;64847;45.778;12.802;2023-06-22T12:17:37;5.57;;;5.05;;
76115;SDS011;64847;45.778;12.802;2023-06-22T12:20:03;5.30;;;4.97;;
76115;SDS011;64847;45.778;12.802;2023-06-22T12:22:33;5.30;;;4.95;;
76115;SDS011;64847;45.778;12.802;2023-06-22T12:24:58;5.65;;;5.25;;
76115;SDS011;64847;45.778;12.802;2023-06-22T12:27:25;4.78;;;4.47;;
76115;SDS011;64847;45.778;12.802;2023-06-22T12:29:51;5.13;;;4.82;;
76115;SDS011;64847;45.778;12.802;2023-06-22T12:32:16;4.97;;;4.68;;
76115;SDS011;64847;45.778;12.802;2023-06-22T12:34:42;5.70;;;5.30;;
76115;SDS011;64847;45.778;12.802;2023-06-22T12:37:08;5.10;;;4.70;;
76115;SDS011;64847;45.778;12.802;2023-06-22T12:39:34;5.20;;;4.78;;
76115;SDS011;64847;45.778;12.802;2023-06-22T12:41:59;4.95;;;4.72;;
76115;SDS011;64847;45.778;12.802;2023-06-22T12:44:25;5.00;;;4.65;;
76115;SDS011;64847;45.778;12.802;2023-06-22T12:46:51;5.97;;;4.70;;
76115;SDS011;64847;45.778;12.802;2023-06-22T12:49:16;4.93;;;4.63;;
76115;SDS011;64847;45.778;12.802;2023-06-22T12:51:42;5.30;;;4.80;;
76115;SDS011;64847;45.778;12.802;2023-06-22T12:54:08;4.90;;;4.50;;
76115;SDS011;64847;45.778;12.802;2023-06-22T12:56:34;5.32;;;4.93;;
76115;SDS011;64847;45.778;12.802;2023-06-22T12:58:59;5.70;;;5.30;;
76115;SDS011;64847;45.778;12.802;2023-06-22T13:01:27;5.95;;;5.28;;
76115;SDS011;64847;45.778;12.802;2023-06-22T13:03:52;5.10;;;4.80;;
76115;SDS011;64847;45.778;12.802;2023-06-22T13:06:18;5.55;;;5.07;;
76115;SDS011;64847;45.778;12.802;2023-06-22T13:08:44;5.60;;;5.20;;
76115;SDS011;64847;45.778;12.802;2023-06-22T13:11:09;5.28;;;4.97;;
76115;SDS011;64847;45.778;12.802;2023-06-22T13:13:35;5.50;;;5.05;;
76115;SDS011;64847;45.778;12.802;2023-06-22T13:16:00;5.43;;;4.93;;
76115;SDS011;64847;45.778;12.802;2023-06-22T13:18:26;4.72;;;4.43;;
76115;SDS011;64847;45.778;12.802;2023-06-22T13:20:51;5.38;;;4.95;;
76115;SDS011;64847;45.778;12.802;2023-06-22T13:23:19;5.30;;;4.90;;
76115;SDS011;64847;45.778;12.802;2023-06-22T13:25:45;5.40;;;4.90;;
76115;SDS011;64847;45.778;12.802;2023-06-22T13:28:10;6.05;;;5.50;;
76115;SDS011;64847;45.778;12.802;2023-06-22T13:30:38;5.75;;;5.25;;
76115;SDS011;64847;45.778;12.802;2023-06-22T13:33:07;5.70;;;5.25;;
76115;SDS011;64847;45.778;12.802;2023-06-22T13:35:33;6.53;;;5.35;;
76115;SDS011;64847;45.778;12.802;2023-06-22T13:38:00;5.68;;;5.18;;
76115;SDS011;64847;45.778;12.802;2023-06-22T13:40:25;5.40;;;5.00;;
76115;SDS011;64847;45.778;12.802;2023-06-22T13:42:51;5.47;;;4.80;;
76115;SDS011;64847;45.778;12.802;2023-06-22T13:45:16;5.95;;;4.60;;
76115;SDS011;64847;45.778;12.802;2023-06-22T13:47:42;5.10;;;4.70;;
76115;SDS011;64847;45.778;12.802;2023-06-22T13:50:08;5.25;;;4.85;;
76115;SDS011;64847;45.778;12.802;2023-06-22T13:52:34;5.25;;;4.85;;
76115;SDS011;64847;45.778;12.802;2023-06-22T13:54:59;5.63;;;5.15;;
76115;SDS011;64847;45.778;12.802;2023-06-22T13:57:25;5.05;;;4.65;;
76115;SDS011;64847;45.778;12.802;2023-06-22T13:59:50;5.95;;;5.50;;
76115;SDS011;64847;45.778;12.802;2023-06-22T14:02:16;5.78;;;5.18;;
76115;SDS011;64847;45.778;12.802;2023-06-22T14:04:41;5.25;;;4.85;;
76115;SDS011;64847;45.778;12.802;2023-06-22T14:07:07;5.30;;;4.80;;
76115;SDS011;64847;45.778;12.802;2023-06-22T14:09:32;5.53;;;5.07;;
76115;SDS011;64847;45.778;12.802;2023-06-22T14:11:57;5.18;;;4.72;;
76115;SDS011;64847;45.778;12.802;2023-06-22T14:14:23;5.45;;;4.95;;
76115;SDS011;64847;45.778;12.802;2023-06-22T14:16:48;4.82;;;4.47;;
76115;SDS011;64847;45.778;12.802;2023-06-22T14:19:16;5.28;;;4.97;;
76115;SDS011;64847;45.778;12.802;2023-06-22T14:21:42;5.10;;;4.80;;
76115;SDS011;64847;45.778;12.802;2023-06-22T14:24:07;5.35;;;4.88;;
76115;SDS011;64847;45.778;12.802;2023-06-22T14:26:33;6.03;;;5.53;;